sensor_id;sensor_type;location;lat;lon;timestamp;temperature;humidity
21682;DHT22;11002;48.256;10.084;2023-04-19T00:01:28;8.50;77.40
21682;DHT22;11002;48.256;10.084;2023-04-19T00:03:55;8.40;77.90
21682;DHT22;11002;48.256;10.084;2023-04-19T00:06:23;8.60;78.10
21682;DHT22;11002;48.256;10.084;2023-04-19T00:08:51;8.50;78.00
21682;DHT22;11002;48.256;10.084;2023-04-19T00:11:19;8.50;78.00
21682;DHT22;11002;48.256;10.084;2023-04-19T00:13:47;8.60;78.10
21682;DHT22;11002;48.256;10.084;2023-04-19T00:16:14;8.50;78.00
21682;DHT22;11002;48.256;10.084;2023-04-19T00:18:42;8.50;78.00
21682;DHT22;11002;48.256;10.084;2023-04-19T00:21:09;8.40;77.90
21682;DHT22;11002;48.256;10.084;2023-04-19T00:23:36;8.50;78.00
21682;DHT22;11002;48.256;10.084;2023-04-19T00:26:04;8.50;78.60
21682;DHT22;11002;48.256;10.084;2023-04-19T00:28:32;8.40;78.50
21682;DHT22;11002;48.256;10.084;2023-04-19T00:31:00;8.60;78.10
21682;DHT22;11002;48.256;10.084;2023-04-19T00:33:27;8.40;78.70
21682;DHT22;11002;48.256;10.084;2023-04-19T00:35:56;8.40;78.00
21682;DHT22;11002;48.256;10.084;2023-04-19T00:38:24;8.30;78.30
21682;DHT22;11002;48.256;10.084;2023-04-19T00:40:51;8.30;77.90
21682;DHT22;11002;48.256;10.084;2023-04-19T00:43:19;8.50;79.00
21682;DHT22;11002;48.256;10.084;2023-04-19T00:45:48;8.50;79.30
21682;DHT22;11002;48.256;10.084;2023-04-19T00:48:22;8.50;78.00
21682;DHT22;11002;48.256;10.084;2023-04-19T00:50:49;8.40;77.90
21682;DHT22;11002;48.256;10.084;2023-04-19T00:53:17;8.40;77.90
21682;DHT22;11002;48.256;10.084;2023-04-19T00:55:45;8.50;78.60
21682;DHT22;11002;48.256;10.084;2023-04-19T00:58:12;8.50;78.00
21682;DHT22;11002;48.256;10.084;2023-04-19T01:00:41;8.50;78.20
21682;DHT22;11002;48.256;10.084;2023-04-19T01:03:09;8.50;78.00
21682;DHT22;11002;48.256;10.084;2023-04-19T01:05:38;8.60;78.30
21682;DHT22;11002;48.256;10.084;2023-04-19T01:08:05;8.40;77.90
21682;DHT22;11002;48.256;10.084;2023-04-19T01:10:33;8.70;78.20
21682;DHT22;11002;48.256;10.084;2023-04-19T01:13:01;8.40;78.20
21682;DHT22;11002;48.256;10.084;2023-04-19T01:15:29;8.50;78.00
21682;DHT22;11002;48.256;10.084;2023-04-19T01:17:56;8.70;78.20
21682;DHT22;11002;48.256;10.084;2023-04-19T01:20:25;8.50;78.00
21682;DHT22;11002;48.256;10.084;2023-04-19T01:22:54;8.40;77.90
21682;DHT22;11002;48.256;10.084;2023-04-19T01:25:22;8.50;79.00
21682;DHT22;11002;48.256;10.084;2023-04-19T01:27:49;8.40;78.90
21682;DHT22;11002;48.256;10.084;2023-04-19T01:30:16;8.30;79.40
21682;DHT22;11002;48.256;10.084;2023-04-19T01:32:44;8.30;80.20
21682;DHT22;11002;48.256;10.084;2023-04-19T01:35:20;8.30;80.40
21682;DHT22;11002;48.256;10.084;2023-04-19T01:37:47;8.40;80.10
21682;DHT22;11002;48.256;10.084;2023-04-19T01:40:17;8.20;80.40
21682;DHT22;11002;48.256;10.084;2023-04-19T01:42:44;8.20;80.70
21682;DHT22;11002;48.256;10.084;2023-04-19T01:45:12;8.30;81.40
21682;DHT22;11002;48.256;10.084;2023-04-19T01:47:39;8.30;81.40
21682;DHT22;11002;48.256;10.084;2023-04-19T01:50:07;8.30;81.70
21682;DHT22;11002;48.256;10.084;2023-04-19T01:52:35;8.40;81.10
21682;DHT22;11002;48.256;10.084;2023-04-19T01:55:04;8.30;80.70
21682;DHT22;11002;48.256;10.084;2023-04-19T01:57:33;8.30;81.10
21682;DHT22;11002;48.256;10.084;2023-04-19T02:00:00;8.50;80.80
21682;DHT22;11002;48.256;10.084;2023-04-19T02:02:28;8.50;80.90
21682;DHT22;11002;48.256;10.084;2023-04-19T02:04:56;8.40;81.50
21682;DHT22;11002;48.256;10.084;2023-04-19T02:07:23;8.30;80.70
21682;DHT22;11002;48.256;10.084;2023-04-19T02:09:51;8.30;80.80
21682;DHT22;11002;48.256;10.084;2023-04-19T02:12:19;8.50;80.90
21682;DHT22;11002;48.256;10.084;2023-04-19T02:14:47;8.50;80.10
21682;DHT22;11002;48.256;10.084;2023-04-19T02:17:15;8.40;80.10
21682;DHT22;11002;48.256;10.084;2023-04-19T02:19:42;8.30;80.50
21682;DHT22;11002;48.256;10.084;2023-04-19T02:22:09;8.20;80.70
21682;DHT22;11002;48.256;10.084;2023-04-19T02:24:38;8.50;81.20
21682;DHT22;11002;48.256;10.084;2023-04-19T02:27:06;8.40;80.90
21682;DHT22;11002;48.256;10.084;2023-04-19T02:29:34;8.30;81.50
21682;DHT22;11002;48.256;10.084;2023-04-19T02:32:02;8.20;82.30
21682;DHT22;11002;48.256;10.084;2023-04-19T02:34:32;8.30;82.50
21682;DHT22;11002;48.256;10.084;2023-04-19T02:36:59;8.30;81.90
21682;DHT22;11002;48.256;10.084;2023-04-19T02:39:28;8.40;81.70
21682;DHT22;11002;48.256;10.084;2023-04-19T02:41:55;8.30;81.50
21682;DHT22;11002;48.256;10.084;2023-04-19T02:44:22;8.30;82.00
21682;DHT22;11002;48.256;10.084;2023-04-19T02:46:50;8.30;82.40
21682;DHT22;11002;48.256;10.084;2023-04-19T02:49:20;8.40;82.50
21682;DHT22;11002;48.256;10.084;2023-04-19T02:51:49;8.30;81.80
21682;DHT22;11002;48.256;10.084;2023-04-19T02:54:16;8.50;82.60
21682;DHT22;11002;48.256;10.084;2023-04-19T02:56:44;8.40;82.00
21682;DHT22;11002;48.256;10.084;2023-04-19T02:59:12;8.30;81.90
21682;DHT22;11002;48.256;10.084;2023-04-19T03:01:39;8.40;82.90
21682;DHT22;11002;48.256;10.084;2023-04-19T03:04:07;8.40;81.70
21682;DHT22;11002;48.256;10.084;2023-04-19T03:06:36;8.20;81.90
21682;DHT22;11002;48.256;10.084;2023-04-19T03:09:03;8.40;83.40
21682;DHT22;11002;48.256;10.084;2023-04-19T03:11:30;8.20;83.80
21682;DHT22;11002;48.256;10.084;2023-04-19T03:13:58;8.20;83.50
21682;DHT22;11002;48.256;10.084;2023-04-19T03:16:25;8.40;82.90
21682;DHT22;11002;48.256;10.084;2023-04-19T03:18:55;8.00;83.40
21682;DHT22;11002;48.256;10.084;2023-04-19T03:21:26;8.10;83.60
21682;DHT22;11002;48.256;10.084;2023-04-19T03:23:56;8.10;84.10
21682;DHT22;11002;48.256;10.084;2023-04-19T03:26:24;8.30;84.30
21682;DHT22;11002;48.256;10.084;2023-04-19T03:28:54;8.10;84.90
21682;DHT22;11002;48.256;10.084;2023-04-19T03:31:34;7.90;83.90
21682;DHT22;11002;48.256;10.084;2023-04-19T03:34:03;7.90;84.00
21682;DHT22;11002;48.256;10.084;2023-04-19T03:36:38;8.20;84.60
21682;DHT22;11002;48.256;10.084;2023-04-19T03:39:07;8.20;84.20
21682;DHT22;11002;48.256;10.084;2023-04-19T03:41:36;8.10;84.10
21682;DHT22;11002;48.256;10.084;2023-04-19T03:44:12;8.10;84.10
21682;DHT22;11002;48.256;10.084;2023-04-19T03:46:42;8.20;84.20
21682;DHT22;11002;48.256;10.084;2023-04-19T03:49:13;8.30;83.80
21682;DHT22;11002;48.256;10.084;2023-04-19T03:51:43;8.20;84.20
21682;DHT22;11002;48.256;10.084;2023-04-19T03:54:12;7.90;83.90
21682;DHT22;11002;48.256;10.084;2023-04-19T03:56:39;7.90;83.90
21682;DHT22;11002;48.256;10.084;2023-04-19T03:59:07;8.10;84.10
21682;DHT22;11002;48.256;10.084;2023-04-19T04:01:37;8.30;84.30
21682;DHT22;11002;48.256;10.084;2023-04-19T04:04:07;8.20;84.20
21682;DHT22;11002;48.256;10.084;2023-04-19T04:06:34;8.00;84.00
21682;DHT22;11002;48.256;10.084;2023-04-19T04:09:02;8.10;84.10
21682;DHT22;11002;48.256;10.084;2023-04-19T04:11:31;8.10;84.10
21682;DHT22;11002;48.256;10.084;2023-04-19T04:13:59;8.00;84.00
21682;DHT22;11002;48.256;10.084;2023-04-19T04:16:30;8.00;84.00
21682;DHT22;11002;48.256;10.084;2023-04-19T04:18:58;8.10;84.10
21682;DHT22;11002;48.256;10.084;2023-04-19T04:21:27;8.00;84.00
21682;DHT22;11002;48.256;10.084;2023-04-19T04:23:58;8.20;84.20
21682;DHT22;11002;48.256;10.084;2023-04-19T04:26:36;8.10;84.10
21682;DHT22;11002;48.256;10.084;2023-04-19T04:29:20;8.20;84.20
21682;DHT22;11002;48.256;10.084;2023-04-19T04:31:50;8.00;84.00
21682;DHT22;11002;48.256;10.084;2023-04-19T04:34:22;8.00;84.00
21682;DHT22;11002;48.256;10.084;2023-04-19T04:36:55;8.10;84.10
21682;DHT22;11002;48.256;10.084;2023-04-19T04:39:24;8.00;84.00
21682;DHT22;11002;48.256;10.084;2023-04-19T04:41:52;8.00;84.00
21682;DHT22;11002;48.256;10.084;2023-04-19T04:44:22;8.00;84.00
21682;DHT22;11002;48.256;10.084;2023-04-19T04:46:50;8.00;84.00
21682;DHT22;11002;48.256;10.084;2023-04-19T04:49:23;8.00;84.10
21682;DHT22;11002;48.256;10.084;2023-04-19T04:51:52;8.10;85.00
21682;DHT22;11002;48.256;10.084;2023-04-19T04:54:21;8.10;84.10
21682;DHT22;11002;48.256;10.084;2023-04-19T04:56:48;8.20;84.20
21682;DHT22;11002;48.256;10.084;2023-04-19T04:59:17;8.00;84.20
21682;DHT22;11002;48.256;10.084;2023-04-19T05:01:48;8.10;84.60
21682;DHT22;11002;48.256;10.084;2023-04-19T05:04:17;8.10;84.10
21682;DHT22;11002;48.256;10.084;2023-04-19T05:06:44;8.10;84.10
21682;DHT22;11002;48.256;10.084;2023-04-19T05:09:18;8.20;84.20
21682;DHT22;11002;48.256;10.084;2023-04-19T05:11:45;8.10;84.10
21682;DHT22;11002;48.256;10.084;2023-04-19T05:14:12;7.90;83.90
21682;DHT22;11002;48.256;10.084;2023-04-19T05:16:41;8.30;84.30
21682;DHT22;11002;48.256;10.084;2023-04-19T05:19:08;8.10;84.10
21682;DHT22;11002;48.256;10.084;2023-04-19T05:21:41;8.10;84.10
21682;DHT22;11002;48.256;10.084;2023-04-19T05:24:09;8.00;84.00
21682;DHT22;11002;48.256;10.084;2023-04-19T05:26:37;8.20;84.20
21682;DHT22;11002;48.256;10.084;2023-04-19T05:29:06;8.10;84.10
21682;DHT22;11002;48.256;10.084;2023-04-19T05:31:50;8.10;84.10
21682;DHT22;11002;48.256;10.084;2023-04-19T05:34:22;8.10;84.10
21682;DHT22;11002;48.256;10.084;2023-04-19T05:36:50;8.20;83.80
21682;DHT22;11002;48.256;10.084;2023-04-19T05:39:17;8.10;84.10
21682;DHT22;11002;48.256;10.084;2023-04-19T05:41:45;8.10;84.10
21682;DHT22;11002;48.256;10.084;2023-04-19T05:44:12;7.90;83.20
21682;DHT22;11002;48.256;10.084;2023-04-19T05:46:40;7.90;83.90
21682;DHT22;11002;48.256;10.084;2023-04-19T05:49:12;8.10;84.10
21682;DHT22;11002;48.256;10.084;2023-04-19T05:51:59;7.90;83.90
21682;DHT22;11002;48.256;10.084;2023-04-19T05:54:33;8.20;84.20
21682;DHT22;11002;48.256;10.084;2023-04-19T05:57:01;7.90;83.40
21682;DHT22;11002;48.256;10.084;2023-04-19T05:59:29;8.10;84.10
21682;DHT22;11002;48.256;10.084;2023-04-19T06:01:56;8.00;84.00
21682;DHT22;11002;48.256;10.084;2023-04-19T06:04:25;8.10;84.10
21682;DHT22;11002;48.256;10.084;2023-04-19T06:06:53;8.00;84.00
21682;DHT22;11002;48.256;10.084;2023-04-19T06:09:20;8.10;84.10
21682;DHT22;11002;48.256;10.084;2023-04-19T06:11:48;8.20;84.20
21682;DHT22;11002;48.256;10.084;2023-04-19T06:14:15;8.30;84.20
21682;DHT22;11002;48.256;10.084;2023-04-19T06:16:43;8.10;84.10
21682;DHT22;11002;48.256;10.084;2023-04-19T06:19:10;8.10;84.10
21682;DHT22;11002;48.256;10.084;2023-04-19T06:21:39;8.00;84.00
21682;DHT22;11002;48.256;10.084;2023-04-19T06:24:07;8.10;84.10
21682;DHT22;11002;48.256;10.084;2023-04-19T06:26:34;8.00;84.00
21682;DHT22;11002;48.256;10.084;2023-04-19T06:29:01;8.10;84.10
21682;DHT22;11002;48.256;10.084;2023-04-19T06:31:29;8.30;84.30
21682;DHT22;11002;48.256;10.084;2023-04-19T06:33:56;8.30;84.30
21682;DHT22;11002;48.256;10.084;2023-04-19T06:36:23;8.10;84.10
21682;DHT22;11002;48.256;10.084;2023-04-19T06:38:53;8.00;83.80
21682;DHT22;11002;48.256;10.084;2023-04-19T06:41:20;8.10;83.70
21682;DHT22;11002;48.256;10.084;2023-04-19T06:43:47;8.20;83.10
21682;DHT22;11002;48.256;10.084;2023-04-19T06:46:15;8.40;84.10
21682;DHT22;11002;48.256;10.084;2023-04-19T06:48:42;8.30;84.30
21682;DHT22;11002;48.256;10.084;2023-04-19T06:51:09;8.60;82.70
21682;DHT22;11002;48.256;10.084;2023-04-19T06:53:37;8.40;82.00
21682;DHT22;11002;48.256;10.084;2023-04-19T06:56:06;8.30;82.60
21682;DHT22;11002;48.256;10.084;2023-04-19T06:58:35;8.40;81.60
21682;DHT22;11002;48.256;10.084;2023-04-19T07:01:02;8.40;81.10
21682;DHT22;11002;48.256;10.084;2023-04-19T07:03:30;8.40;82.00
21682;DHT22;11002;48.256;10.084;2023-04-19T07:05:57;8.60;81.50
21682;DHT22;11002;48.256;10.084;2023-04-19T07:08:25;8.60;80.40
21682;DHT22;11002;48.256;10.084;2023-04-19T07:10:52;8.60;78.50
21682;DHT22;11002;48.256;10.084;2023-04-19T07:13:23;8.60;78.10
21682;DHT22;11002;48.256;10.084;2023-04-19T07:15:50;8.90;78.40
21682;DHT22;11002;48.256;10.084;2023-04-19T07:18:17;8.80;78.30
21682;DHT22;11002;48.256;10.084;2023-04-19T07:20:45;8.80;77.40
21682;DHT22;11002;48.256;10.084;2023-04-19T07:23:14;9.00;77.00
21682;DHT22;11002;48.256;10.084;2023-04-19T07:25:42;8.90;75.60
21682;DHT22;11002;48.256;10.084;2023-04-19T07:28:09;8.70;76.30
21682;DHT22;11002;48.256;10.084;2023-04-19T07:30:38;8.90;75.90
21682;DHT22;11002;48.256;10.084;2023-04-19T07:33:06;8.70;75.10
21682;DHT22;11002;48.256;10.084;2023-04-19T07:35:34;8.70;76.40
21682;DHT22;11002;48.256;10.084;2023-04-19T07:38:01;8.90;76.20
21682;DHT22;11002;48.256;10.084;2023-04-19T07:40:29;8.80;74.50
21682;DHT22;11002;48.256;10.084;2023-04-19T07:42:56;8.90;74.40
21682;DHT22;11002;48.256;10.084;2023-04-19T07:45:23;9.00;73.80
21682;DHT22;11002;48.256;10.084;2023-04-19T07:47:52;8.90;73.00
21682;DHT22;11002;48.256;10.084;2023-04-19T07:50:19;8.90;73.60
21682;DHT22;11002;48.256;10.084;2023-04-19T07:52:47;9.00;73.20
21682;DHT22;11002;48.256;10.084;2023-04-19T07:55:14;8.90;71.70
21682;DHT22;11002;48.256;10.084;2023-04-19T07:57:42;9.10;71.90
21682;DHT22;11002;48.256;10.084;2023-04-19T08:00:13;9.10;72.00
21682;DHT22;11002;48.256;10.084;2023-04-19T08:02:42;9.10;71.90
21682;DHT22;11002;48.256;10.084;2023-04-19T08:05:11;9.20;69.70
21682;DHT22;11002;48.256;10.084;2023-04-19T08:07:39;9.30;68.60
21682;DHT22;11002;48.256;10.084;2023-04-19T08:10:07;9.40;69.60
21682;DHT22;11002;48.256;10.084;2023-04-19T08:12:35;9.60;69.30
21682;DHT22;11002;48.256;10.084;2023-04-19T08:15:07;9.40;66.20
21682;DHT22;11002;48.256;10.084;2023-04-19T08:17:35;9.40;66.90
21682;DHT22;11002;48.256;10.084;2023-04-19T08:20:03;9.50;66.50
21682;DHT22;11002;48.256;10.084;2023-04-19T08:22:33;9.60;67.50
21682;DHT22;11002;48.256;10.084;2023-04-19T08:25:00;9.50;65.60
21682;DHT22;11002;48.256;10.084;2023-04-19T08:27:27;9.70;65.70
21682;DHT22;11002;48.256;10.084;2023-04-19T08:29:55;9.50;65.50
21682;DHT22;11002;48.256;10.084;2023-04-19T08:32:22;9.80;65.80
21682;DHT22;11002;48.256;10.084;2023-04-19T08:34:49;9.50;65.50
21682;DHT22;11002;48.256;10.084;2023-04-19T08:37:16;9.60;65.70
21682;DHT22;11002;48.256;10.084;2023-04-19T08:39:45;9.40;65.60
21682;DHT22;11002;48.256;10.084;2023-04-19T08:42:12;9.40;65.50
21682;DHT22;11002;48.256;10.084;2023-04-19T08:44:40;9.70;66.60
21682;DHT22;11002;48.256;10.084;2023-04-19T08:47:09;9.60;67.20
21682;DHT22;11002;48.256;10.084;2023-04-19T08:49:38;9.60;66.70
21682;DHT22;11002;48.256;10.084;2023-04-19T08:52:06;9.50;65.50
21682;DHT22;11002;48.256;10.084;2023-04-19T08:54:35;9.60;66.10
21682;DHT22;11002;48.256;10.084;2023-04-19T08:57:04;9.80;66.30
21682;DHT22;11002;48.256;10.084;2023-04-19T08:59:33;9.90;66.90
21682;DHT22;11002;48.256;10.084;2023-04-19T09:02:01;9.90;65.90
21682;DHT22;11002;48.256;10.084;2023-04-19T09:04:28;9.80;63.40
21682;DHT22;11002;48.256;10.084;2023-04-19T09:06:56;9.90;64.70
21682;DHT22;11002;48.256;10.084;2023-04-19T09:09:24;9.90;65.90
21682;DHT22;11002;48.256;10.084;2023-04-19T09:11:52;10.10;65.10
21682;DHT22;11002;48.256;10.084;2023-04-19T09:14:21;10.40;63.20
21682;DHT22;11002;48.256;10.084;2023-04-19T09:16:49;10.20;60.80
21682;DHT22;11002;48.256;10.084;2023-04-19T09:19:17;10.20;61.00
21682;DHT22;11002;48.256;10.084;2023-04-19T09:21:45;10.50;61.40
21682;DHT22;11002;48.256;10.084;2023-04-19T09:24:16;10.50;62.40
21682;DHT22;11002;48.256;10.084;2023-04-19T09:26:53;10.40;60.40
21682;DHT22;11002;48.256;10.084;2023-04-19T09:29:24;10.50;60.00
21682;DHT22;11002;48.256;10.084;2023-04-19T09:31:58;10.50;58.80
21682;DHT22;11002;48.256;10.084;2023-04-19T09:34:25;10.60;58.90
21682;DHT22;11002;48.256;10.084;2023-04-19T09:36:55;10.70;60.10
21682;DHT22;11002;48.256;10.084;2023-04-19T09:39:30;10.70;58.90
21682;DHT22;11002;48.256;10.084;2023-04-19T09:41:57;10.70;58.90
21682;DHT22;11002;48.256;10.084;2023-04-19T09:44:27;10.90;59.10
21682;DHT22;11002;48.256;10.084;2023-04-19T09:46:54;10.90;59.10
21682;DHT22;11002;48.256;10.084;2023-04-19T09:49:23;11.10;59.30
21682;DHT22;11002;48.256;10.084;2023-04-19T09:51:53;11.20;58.60
21682;DHT22;11002;48.256;10.084;2023-04-19T09:54:21;11.40;59.10
21682;DHT22;11002;48.256;10.084;2023-04-19T09:56:50;11.60;57.40
21682;DHT22;11002;48.256;10.084;2023-04-19T09:59:18;11.90;53.90
21682;DHT22;11002;48.256;10.084;2023-04-19T10:01:47;12.00;53.90
21682;DHT22;11002;48.256;10.084;2023-04-19T10:04:17;12.00;51.90
21682;DHT22;11002;48.256;10.084;2023-04-19T10:06:48;12.10;52.80
21682;DHT22;11002;48.256;10.084;2023-04-19T10:09:17;12.10;50.70
21682;DHT22;11002;48.256;10.084;2023-04-19T10:11:48;12.00;51.70
21682;DHT22;11002;48.256;10.084;2023-04-19T10:14:16;12.30;51.70
21682;DHT22;11002;48.256;10.084;2023-04-19T10:16:46;12.60;51.90
21682;DHT22;11002;48.256;10.084;2023-04-19T10:19:16;12.70;49.50
21682;DHT22;11002;48.256;10.084;2023-04-19T10:21:46;12.80;49.90
21682;DHT22;11002;48.256;10.084;2023-04-19T10:24:15;12.80;49.40
21682;DHT22;11002;48.256;10.084;2023-04-19T10:27:07;12.70;49.20
21682;DHT22;11002;48.256;10.084;2023-04-19T10:30:00;12.50;50.90
21682;DHT22;11002;48.256;10.084;2023-04-19T10:32:38;12.40;51.30
21682;DHT22;11002;48.256;10.084;2023-04-19T10:35:09;12.50;51.70
21682;DHT22;11002;48.256;10.084;2023-04-19T10:37:39;12.50;50.70
21682;DHT22;11002;48.256;10.084;2023-04-19T10:40:09;12.60;50.20
21682;DHT22;11002;48.256;10.084;2023-04-19T10:43:13;12.90;50.20
21682;DHT22;11002;48.256;10.084;2023-04-19T10:45:41;13.10;48.10
21682;DHT22;11002;48.256;10.084;2023-04-19T10:48:33;13.30;46.20
21682;DHT22;11002;48.256;10.084;2023-04-19T10:51:04;13.70;44.20
21682;DHT22;11002;48.256;10.084;2023-04-19T10:53:55;14.30;43.70
21682;DHT22;11002;48.256;10.084;2023-04-19T10:59:36;15.00;41.10
21682;DHT22;11002;48.256;10.084;2023-04-19T11:02:25;14.80;43.70
21682;DHT22;11002;48.256;10.084;2023-04-19T11:05:00;14.50;43.50
21682;DHT22;11002;48.256;10.084;2023-04-19T11:07:27;14.20;43.20
21682;DHT22;11002;48.256;10.084;2023-04-19T11:09:55;13.80;42.80
21682;DHT22;11002;48.256;10.084;2023-04-19T11:12:22;13.30;42.40
21682;DHT22;11002;48.256;10.084;2023-04-19T11:14:51;13.00;45.40
21682;DHT22;11002;48.256;10.084;2023-04-19T11:17:20;12.70;45.40
21682;DHT22;11002;48.256;10.084;2023-04-19T11:19:55;12.50;46.20
21682;DHT22;11002;48.256;10.084;2023-04-19T11:22:30;12.20;47.10
21682;DHT22;11002;48.256;10.084;2023-04-19T11:25:05;12.00;46.10
21682;DHT22;11002;48.256;10.084;2023-04-19T11:27:33;11.80;49.00
21682;DHT22;11002;48.256;10.084;2023-04-19T11:30:05;11.90;49.20
21682;DHT22;11002;48.256;10.084;2023-04-19T11:32:32;11.90;47.60
21682;DHT22;11002;48.256;10.084;2023-04-19T11:35:04;11.90;48.90
21682;DHT22;11002;48.256;10.084;2023-04-19T11:37:36;12.10;49.50
21682;DHT22;11002;48.256;10.084;2023-04-19T11:40:05;12.20;48.00
21682;DHT22;11002;48.256;10.084;2023-04-19T11:42:32;12.30;49.30
21682;DHT22;11002;48.256;10.084;2023-04-19T11:45:01;12.40;50.10
21682;DHT22;11002;48.256;10.084;2023-04-19T11:47:28;12.60;49.40
21682;DHT22;11002;48.256;10.084;2023-04-19T11:50:33;12.70;48.30
21682;DHT22;11002;48.256;10.084;2023-04-19T11:53:13;12.70;47.90
21682;DHT22;11002;48.256;10.084;2023-04-19T11:55:43;12.60;46.50
21682;DHT22;11002;48.256;10.084;2023-04-19T11:58:22;12.40;47.10
21682;DHT22;11002;48.256;10.084;2023-04-19T12:00:50;12.30;47.10
21682;DHT22;11002;48.256;10.084;2023-04-19T12:03:20;12.20;47.90
21682;DHT22;11002;48.256;10.084;2023-04-19T12:05:55;12.20;48.60
21682;DHT22;11002;48.256;10.084;2023-04-19T12:08:32;12.20;47.90
21682;DHT22;11002;48.256;10.084;2023-04-19T12:11:00;12.20;47.90
21682;DHT22;11002;48.256;10.084;2023-04-19T12:13:28;12.20;48.70
21682;DHT22;11002;48.256;10.084;2023-04-19T12:15:57;12.30;49.30
21682;DHT22;11002;48.256;10.084;2023-04-19T12:18:25;12.30;49.30
21682;DHT22;11002;48.256;10.084;2023-04-19T12:20:53;12.30;47.90
21682;DHT22;11002;48.256;10.084;2023-04-19T12:23:20;12.30;47.90
21682;DHT22;11002;48.256;10.084;2023-04-19T12:25:49;12.30;47.90
21682;DHT22;11002;48.256;10.084;2023-04-19T12:28:16;12.30;49.40
21682;DHT22;11002;48.256;10.084;2023-04-19T12:30:43;12.10;49.80
21682;DHT22;11002;48.256;10.084;2023-04-19T12:33:12;12.00;49.70
21682;DHT22;11002;48.256;10.084;2023-04-19T12:35:39;12.00;50.60
21682;DHT22;11002;48.256;10.084;2023-04-19T12:38:07;11.90;50.70
21682;DHT22;11002;48.256;10.084;2023-04-19T12:40:35;11.80;51.30
21682;DHT22;11002;48.256;10.084;2023-04-19T12:43:05;11.80;53.20
21682;DHT22;11002;48.256;10.084;2023-04-19T12:45:33;11.70;53.70
21682;DHT22;11002;48.256;10.084;2023-04-19T12:48:01;11.70;53.70
21682;DHT22;11002;48.256;10.084;2023-04-19T12:50:28;11.70;53.70
21682;DHT22;11002;48.256;10.084;2023-04-19T12:52:55;11.60;54.30
21682;DHT22;11002;48.256;10.084;2023-04-19T12:55:23;11.60;55.20
21682;DHT22;11002;48.256;10.084;2023-04-19T12:57:50;11.50;56.40
21682;DHT22;11002;48.256;10.084;2023-04-19T13:00:19;11.40;56.30
21682;DHT22;11002;48.256;10.084;2023-04-19T13:02:46;11.50;57.90
21682;DHT22;11002;48.256;10.084;2023-04-19T13:05:14;11.40;59.20
21682;DHT22;11002;48.256;10.084;2023-04-19T13:07:41;11.40;59.50
21682;DHT22;11002;48.256;10.084;2023-04-19T13:10:09;11.30;59.50
21682;DHT22;11002;48.256;10.084;2023-04-19T13:12:37;11.20;60.50
21682;DHT22;11002;48.256;10.084;2023-04-19T13:15:06;11.20;59.40
21682;DHT22;11002;48.256;10.084;2023-04-19T13:17:36;10.90;62.10
21682;DHT22;11002;48.256;10.084;2023-04-19T13:20:04;10.80;62.70
21682;DHT22;11002;48.256;10.084;2023-04-19T13:22:32;10.70;63.30
21682;DHT22;11002;48.256;10.084;2023-04-19T13:24:59;10.60;64.80
21682;DHT22;11002;48.256;10.084;2023-04-19T13:27:27;10.50;64.10
21682;DHT22;11002;48.256;10.084;2023-04-19T13:29:55;10.70;65.60
21682;DHT22;11002;48.256;10.084;2023-04-19T13:32:22;10.30;65.20
21682;DHT22;11002;48.256;10.084;2023-04-19T13:34:51;10.60;68.30
21682;DHT22;11002;48.256;10.084;2023-04-19T13:37:18;10.30;69.70
21682;DHT22;11002;48.256;10.084;2023-04-19T13:39:45;10.30;71.90
21682;DHT22;11002;48.256;10.084;2023-04-19T13:42:13;10.30;71.20
21682;DHT22;11002;48.256;10.084;2023-04-19T13:44:40;10.30;72.00
21682;DHT22;11002;48.256;10.084;2023-04-19T13:47:07;10.10;72.10
21682;DHT22;11002;48.256;10.084;2023-04-19T13:49:35;10.10;74.30
21682;DHT22;11002;48.256;10.084;2023-04-19T13:52:03;10.10;74.50
21682;DHT22;11002;48.256;10.084;2023-04-19T13:54:31;10.00;75.20
21682;DHT22;11002;48.256;10.084;2023-04-19T13:56:58;10.10;74.00
21682;DHT22;11002;48.256;10.084;2023-04-19T13:59:25;10.00;75.00
21682;DHT22;11002;48.256;10.084;2023-04-19T14:01:55;9.90;79.30
21682;DHT22;11002;48.256;10.084;2023-04-19T14:04:22;9.80;81.10
21682;DHT22;11002;48.256;10.084;2023-04-19T14:06:49;9.80;79.70
21682;DHT22;11002;48.256;10.084;2023-04-19T14:09:18;9.80;79.90
21682;DHT22;11002;48.256;10.084;2023-04-19T14:11:45;9.50;79.90
21682;DHT22;11002;48.256;10.084;2023-04-19T14:14:14;9.50;81.80
21682;DHT22;11002;48.256;10.084;2023-04-19T14:16:41;9.50;82.50
21682;DHT22;11002;48.256;10.084;2023-04-19T14:19:09;9.40;82.70
21682;DHT22;11002;48.256;10.084;2023-04-19T14:21:37;9.20;84.00
21682;DHT22;11002;48.256;10.084;2023-04-19T14:24:05;9.10;85.10
21682;DHT22;11002;48.256;10.084;2023-04-19T14:26:34;8.90;90.50
21682;DHT22;11002;48.256;10.084;2023-04-19T14:29:01;8.80;91.50
21682;DHT22;11002;48.256;10.084;2023-04-19T14:31:28;8.90;92.80
21682;DHT22;11002;48.256;10.084;2023-04-19T14:33:56;8.80;92.90
21682;DHT22;11002;48.256;10.084;2023-04-19T14:36:24;9.00;93.40
21682;DHT22;11002;48.256;10.084;2023-04-19T14:38:52;8.80;92.80
21682;DHT22;11002;48.256;10.084;2023-04-19T14:41:19;8.70;92.00
21682;DHT22;11002;48.256;10.084;2023-04-19T14:43:49;8.80;91.50
21682;DHT22;11002;48.256;10.084;2023-04-19T14:46:16;8.70;90.20
21682;DHT22;11002;48.256;10.084;2023-04-19T14:48:44;8.30;89.90
21682;DHT22;11002;48.256;10.084;2023-04-19T14:51:11;8.40;91.00
21682;DHT22;11002;48.256;10.084;2023-04-19T14:53:38;8.50;90.30
21682;DHT22;11002;48.256;10.084;2023-04-19T14:56:07;8.40;90.30
21682;DHT22;11002;48.256;10.084;2023-04-19T14:58:34;8.40;90.30
21682;DHT22;11002;48.256;10.084;2023-04-19T15:01:11;8.50;90.30
21682;DHT22;11002;48.256;10.084;2023-04-19T15:03:38;8.30;90.50
21682;DHT22;11002;48.256;10.084;2023-04-19T15:06:06;8.60;90.60
21682;DHT22;11002;48.256;10.084;2023-04-19T15:08:34;8.50;90.30
21682;DHT22;11002;48.256;10.084;2023-04-19T15:11:01;8.40;90.30
21682;DHT22;11002;48.256;10.084;2023-04-19T15:13:28;8.50;90.80
21682;DHT22;11002;48.256;10.084;2023-04-19T15:15:56;8.40;91.20
21682;DHT22;11002;48.256;10.084;2023-04-19T15:18:24;8.30;91.90
21682;DHT22;11002;48.256;10.084;2023-04-19T15:20:52;8.30;91.80
21682;DHT22;11002;48.256;10.084;2023-04-19T15:23:22;8.40;90.50
21682;DHT22;11002;48.256;10.084;2023-04-19T15:25:50;8.40;91.20
21682;DHT22;11002;48.256;10.084;2023-04-19T15:28:17;8.50;91.50
21682;DHT22;11002;48.256;10.084;2023-04-19T15:30:48;8.20;91.60
21682;DHT22;11002;48.256;10.084;2023-04-19T15:33:24;8.20;92.30
21682;DHT22;11002;48.256;10.084;2023-04-19T15:35:52;8.20;91.80
21682;DHT22;11002;48.256;10.084;2023-04-19T15:38:20;8.20;91.90
21682;DHT22;11002;48.256;10.084;2023-04-19T15:40:48;8.10;91.30
21682;DHT22;11002;48.256;10.084;2023-04-19T15:43:15;8.00;91.00